createdAt,value
2022-10-24T00:38:35.600Z,5.65
2022-10-24T00:41:04.200Z,6.60
2022-10-24T00:43:32.677Z,6.80
2022-10-24T00:46:02.837Z,6.32
2022-10-24T00:48:36.848Z,6.28
2022-10-24T00:51:09.351Z,6.43
2022-10-24T00:53:44.612Z,4.63
2022-10-24T00:56:15.097Z,5.25
2022-10-24T00:58:45.958Z,6.05
2022-10-24T01:01:14.946Z,5.32
2022-10-24T01:06:34.148Z,5.45
2022-10-24T01:09:17.187Z,7.78
2022-10-24T01:11:57.879Z,7.45
2022-10-24T01:14:37.701Z,5.47
2022-10-24T01:17:14.889Z,5.93
2022-10-24T01:20:07.580Z,4.60
2022-10-24T01:22:46.578Z,6.30
2022-10-24T01:25:21.752Z,6.13
2022-10-24T01:27:59.967Z,9.38
2022-10-24T01:30:36.507Z,7.40
2022-10-24T01:33:08.023Z,6.85
2022-10-24T01:35:42.782Z,5.90
2022-10-24T01:38:17.983Z,5.45
2022-10-24T01:40:52.962Z,4.88
2022-10-24T01:43:26.079Z,7.78
2022-10-24T01:46:02.157Z,4.55
2022-10-24T01:48:34.639Z,5.38
2022-10-24T01:51:05.447Z,6.50
2022-10-24T01:53:34.055Z,4.97
2022-10-24T01:56:03.154Z,5.85
2022-10-24T01:58:31.945Z,5.05
2022-10-24T02:01:07.146Z,5.25
2022-10-24T02:03:38.896Z,5.80
2022-10-24T02:06:13.003Z,6.65
2022-10-24T02:08:44.884Z,3.97
2022-10-24T02:11:13.645Z,5.57
2022-10-24T02:13:47.451Z,5.68
2022-10-24T02:16:20.635Z,4.97
2022-10-24T02:18:52.386Z,4.82
2022-10-24T02:21:30.340Z,5.15
2022-10-24T02:24:03.908Z,4.95
2022-10-24T02:26:36.433Z,5.85
2022-10-24T02:29:12.367Z,6.03
2022-10-24T02:31:47.174Z,4.15
2022-10-24T02:34:18.764Z,5.10
2022-10-24T02:36:51.292Z,4.40
2022-10-24T02:39:21.262Z,4.07
2022-10-24T02:41:51.740Z,4.25
2022-10-24T02:44:21.196Z,5.13
2022-10-24T02:46:54.198Z,4.85
2022-10-24T02:49:22.843Z,4.63
2022-10-24T02:51:52.285Z,4.50
2022-10-24T02:54:20.823Z,4.95
2022-10-24T02:56:52.916Z,3.83
2022-10-24T02:59:21.474Z,4.47
2022-10-24T03:01:51.315Z,4.82
2022-10-24T03:04:19.894Z,4.20
2022-10-24T03:06:48.306Z,4.88
2022-10-24T03:09:16.823Z,4.93
2022-10-24T03:11:45.223Z,5.18
2022-10-24T03:14:13.925Z,8.02
2022-10-24T03:16:42.404Z,4.97
2022-10-24T03:19:12.187Z,4.72
2022-10-24T03:21:41.751Z,4.38
2022-10-24T03:24:10.533Z,5.20
2022-10-24T03:26:38.928Z,4.88
2022-10-24T03:29:07.324Z,4.50
2022-10-24T03:31:36.629Z,3.90
2022-10-24T03:34:05.078Z,6.38
2022-10-24T03:36:34.835Z,7.32
2022-10-24T03:39:03.304Z,5.78
2022-10-24T03:41:31.856Z,6.25
2022-10-24T03:44:00.336Z,6.57
2022-10-24T03:46:28.711Z,3.88
2022-10-24T03:48:57.277Z,6.13
2022-10-24T03:51:25.841Z,4.70
2022-10-24T03:53:55.662Z,4.20
2022-10-24T03:56:24.211Z,6.10
2022-10-24T03:58:52.650Z,4.75
2022-10-24T04:01:21.931Z,6.85
2022-10-24T04:03:50.364Z,6.55
2022-10-24T04:06:18.953Z,6.00
2022-10-24T04:08:47.374Z,5.40
2022-10-24T04:11:17.322Z,5.70
2022-10-24T04:13:45.831Z,6.90
2022-10-24T04:16:14.192Z,5.90
2022-10-24T04:18:42.738Z,5.45
2022-10-24T04:21:11.902Z,6.10
2022-10-24T04:23:41.348Z,9.60
2022-10-24T04:26:10.554Z,9.10
2022-10-24T04:28:40.597Z,6.88
2022-10-24T04:31:09.299Z,8.15
2022-10-24T04:33:37.686Z,10.52
2022-10-24T04:36:07.007Z,7.80
2022-10-24T04:38:35.405Z,6.45
2022-10-24T04:41:06.238Z,7.03
2022-10-24T04:43:37.027Z,7.32
2022-10-24T04:46:06.955Z,14.02
2022-10-24T04:48:35.870Z,5.13
2022-10-24T04:51:04.383Z,6.05
2022-10-24T04:53:32.778Z,6.32
2022-10-24T04:56:01.245Z,6.30
2022-10-24T04:58:29.717Z,5.22
2022-10-24T05:00:58.387Z,5.05
2022-10-24T05:03:28.710Z,6.15
2022-10-24T05:05:57.249Z,4.78
2022-10-24T05:08:25.719Z,4.50
2022-10-24T05:10:54.325Z,5.95
2022-10-24T05:13:22.757Z,7.28
2022-10-24T05:15:51.195Z,5.85
2022-10-24T05:18:19.739Z,3.65
2022-10-24T05:20:49.714Z,6.97
2022-10-24T05:23:18.264Z,5.35
2022-10-24T05:25:46.619Z,6.45
2022-10-24T05:28:15.061Z,4.68
2022-10-24T05:30:44.370Z,6.05
2022-10-24T05:33:12.945Z,6.43
2022-10-24T05:35:42.690Z,5.47
2022-10-24T05:38:12.472Z,4.45
2022-10-24T05:40:40.944Z,7.30
2022-10-24T05:43:10.119Z,4.97
2022-10-24T05:48:07.558Z,6.30
2022-10-24T05:50:36.220Z,7.40
2022-10-24T05:53:05.102Z,4.82
2022-10-24T05:55:34.841Z,6.18
2022-10-24T05:58:03.408Z,4.40
2022-10-24T06:02:06.528Z,7.82
2022-10-24T06:04:34.983Z,5.18
2022-10-24T06:07:03.435Z,5.82
2022-10-24T06:09:31.998Z,6.90
2022-10-24T06:12:00.334Z,11.02
2022-10-24T06:14:28.937Z,5.53
2022-10-24T06:16:57.347Z,7.85
2022-10-24T06:19:27.310Z,6.40
2022-10-24T06:21:55.717Z,5.55
2022-10-24T06:24:24.154Z,10.07
2022-10-24T06:26:52.789Z,8.75
2022-10-24T06:29:21.213Z,7.20
2022-10-24T06:31:49.718Z,9.35
2022-10-24T06:34:18.204Z,9.35
2022-10-24T06:36:48.073Z,7.10
2022-10-24T06:39:16.449Z,5.57
2022-10-24T06:41:44.878Z,7.72
2022-10-24T06:44:16.280Z,5.72
2022-10-24T06:46:44.720Z,3.40
2022-10-24T06:49:14.144Z,8.68
2022-10-24T06:51:42.932Z,6.57
2022-10-24T06:54:12.977Z,8.27
2022-10-24T06:56:41.505Z,5.50
2022-10-24T06:59:11.129Z,4.88
2022-10-24T07:01:39.644Z,5.97
2022-10-24T07:04:08.087Z,4.72
2022-10-24T07:06:36.617Z,7.18
2022-10-24T07:09:07.009Z,6.85
2022-10-24T07:11:38.168Z,6.90
2022-10-24T07:14:09.094Z,5.38
2022-10-24T07:16:38.497Z,3.53
2022-10-24T07:19:07.287Z,5.30
2022-10-24T07:21:36.130Z,6.43
2022-10-24T07:24:05.582Z,5.15
2022-10-24T07:26:34.135Z,5.60
2022-10-24T07:29:04.773Z,5.22
2022-10-24T07:31:35.720Z,4.68
2022-10-24T07:34:06.907Z,4.07
2022-10-24T07:36:38.951Z,3.17
2022-10-24T07:39:12.008Z,6.03
2022-10-24T07:44:12.344Z,4.50
2022-10-24T07:46:42.375Z,2.50
2022-10-24T07:49:11.468Z,5.53
2022-10-24T07:54:08.204Z,3.28
2022-10-24T07:56:36.706Z,3.20
2022-10-24T07:59:09.630Z,4.97
2022-10-24T08:01:43.636Z,2.95
2022-10-24T08:04:13.808Z,6.47
2022-10-24T08:06:42.943Z,5.72
2022-10-24T08:11:40.882Z,4.68
2022-10-24T08:14:09.347Z,4.15
2022-10-24T08:16:38.541Z,5.13
2022-10-24T08:19:08.337Z,5.45
2022-10-24T08:21:36.861Z,4.40
2022-10-24T08:24:05.512Z,6.05
2022-10-24T08:26:34.008Z,4.18
2022-10-24T08:29:04.584Z,5.35
2022-10-24T08:31:33.061Z,5.03
2022-10-24T08:34:01.516Z,4.05
2022-10-24T08:36:33.512Z,6.78
2022-10-24T08:39:03.637Z,5.97
2022-10-24T08:41:37.228Z,3.47
2022-10-24T08:44:15.299Z,3.55
2022-10-24T08:46:50.429Z,4.87
2022-10-24T08:49:27.035Z,7.82
2022-10-24T08:52:01.278Z,3.60
2022-10-24T08:54:37.012Z,3.83
2022-10-24T08:57:07.499Z,5.18
2022-10-24T08:59:38.232Z,3.08
2022-10-24T09:02:17.927Z,5.78
2022-10-24T09:04:52.773Z,3.55
2022-10-24T09:09:59.640Z,4.00
2022-10-24T09:12:28.549Z,3.30
2022-10-24T09:15:00.659Z,5.13
2022-10-24T09:17:33.877Z,8.57
2022-10-24T09:20:07.911Z,7.68
2022-10-24T09:22:39.491Z,4.93
2022-10-24T09:25:16.194Z,6.25
2022-10-24T09:27:45.853Z,6.20
2022-10-24T09:30:18.768Z,4.85
2022-10-24T09:32:47.818Z,4.95
2022-10-24T09:35:19.348Z,5.50
2022-10-24T09:37:50.893Z,10.32
2022-10-24T09:40:23.161Z,5.18
2022-10-24T09:42:58.492Z,6.97
2022-10-24T09:45:35.309Z,8.30
2022-10-24T09:48:08.062Z,6.07
2022-10-24T09:50:37.543Z,4.65
2022-10-24T09:53:07.497Z,7.97
2022-10-24T09:55:46.911Z,5.32
2022-10-24T09:58:21.098Z,4.72
2022-10-24T10:00:59.822Z,4.35
2022-10-24T10:03:28.583Z,4.90
2022-10-24T10:05:58.585Z,3.10
2022-10-24T10:08:31.866Z,3.97
2022-10-24T10:11:04.219Z,4.63
2022-10-24T10:13:38.287Z,3.17
2022-10-24T10:16:10.760Z,5.93
2022-10-24T10:18:47.045Z,4.97
2022-10-24T10:21:18.549Z,6.07
2022-10-24T10:23:50.105Z,3.33
2022-10-24T10:26:25.552Z,3.38
2022-10-24T10:29:05.755Z,5.30
2022-10-24T10:31:40.844Z,4.25
2022-10-24T10:34:20.282Z,3.35
2022-10-24T10:37:20.096Z,3.90
2022-10-24T10:40:18.344Z,7.65
2022-10-24T10:42:59.024Z,3.58
2022-10-24T10:45:36.070Z,3.88
2022-10-24T10:48:21.165Z,2.63
2022-10-24T10:50:57.267Z,3.15
2022-10-24T10:53:36.652Z,2.60
2022-10-24T10:56:23.007Z,3.75
2022-10-24T10:59:05.832Z,3.15
2022-10-24T11:01:45.398Z,3.15
2022-10-24T11:04:22.623Z,3.65
2022-10-24T11:07:02.015Z,3.03
2022-10-24T11:09:34.965Z,4.00
2022-10-24T11:12:10.946Z,2.75
2022-10-24T11:14:43.652Z,2.28
2022-10-24T11:17:18.031Z,4.72
2022-10-24T11:19:56.059Z,2.83
2022-10-24T11:22:27.592Z,4.67
2022-10-24T11:25:00.966Z,3.05
2022-10-24T11:27:40.071Z,2.53
2022-10-24T11:30:16.117Z,3.97
2022-10-24T11:32:51.467Z,2.05
2022-10-24T11:35:29.008Z,3.22
2022-10-24T11:38:03.328Z,2.55
2022-10-24T11:40:32.267Z,2.38
2022-10-24T11:45:45.714Z,2.15
2022-10-24T11:48:18.107Z,2.17
2022-10-24T11:50:51.049Z,2.65
2022-10-24T11:53:42.024Z,3.33
2022-10-24T11:56:15.773Z,2.40
2022-10-24T11:58:55.730Z,2.28
2022-10-24T12:02:02.921Z,1.60
2022-10-24T12:04:55.394Z,4.15
2022-10-24T12:08:02.213Z,2.10
2022-10-24T12:10:50.483Z,2.58
2022-10-24T12:13:48.648Z,2.15
2022-10-24T12:16:30.252Z,3.90
2022-10-24T12:19:02.461Z,2.25
2022-10-24T12:21:39.542Z,2.30
2022-10-24T12:24:21.444Z,2.60
2022-10-24T12:26:58.468Z,3.50
2022-10-24T12:29:28.848Z,2.63
2022-10-24T12:31:59.455Z,3.08
2022-10-24T12:34:48.820Z,2.28
2022-10-24T12:37:45.894Z,2.97
2022-10-24T12:41:06.876Z,4.45
2022-10-24T12:43:36.962Z,3.25
2022-10-24T12:46:38.578Z,3.35
2022-10-24T12:49:24.309Z,4.22
2022-10-24T12:51:55.201Z,2.42
2022-10-24T12:54:42.501Z,1.98
2022-10-24T12:57:26.353Z,2.13
2022-10-24T12:59:57.809Z,2.50
2022-10-24T13:03:04.403Z,2.58
2022-10-24T13:05:55.782Z,3.50
2022-10-24T13:08:37.278Z,2.40
2022-10-24T13:11:22.468Z,3.17
2022-10-24T13:14:32.367Z,2.90
2022-10-24T13:17:09.416Z,3.05
2022-10-24T13:19:38.193Z,4.28
2022-10-24T13:22:28.959Z,2.55
2022-10-24T13:24:58.172Z,5.28
2022-10-24T13:27:32.592Z,3.10
2022-10-24T13:30:23.850Z,2.33
2022-10-24T13:32:52.520Z,3.80
2022-10-24T13:35:26.308Z,2.75
2022-10-24T13:38:00.511Z,3.10
2022-10-24T13:40:33.434Z,5.00
2022-10-24T13:43:07.661Z,2.97
2022-10-24T13:45:48.920Z,3.08
2022-10-24T13:48:20.620Z,3.63
2022-10-24T13:50:57.502Z,2.92
2022-10-24T13:53:32.541Z,2.28
2022-10-24T13:56:05.061Z,2.60
2022-10-24T13:58:43.532Z,2.40
2022-10-24T14:01:20.494Z,1.77
2022-10-24T14:03:51.017Z,2.42
2022-10-24T14:06:25.954Z,2.95
2022-10-24T14:09:06.526Z,4.55
2022-10-24T14:11:40.831Z,2.38
2022-10-24T14:14:25.752Z,2.90
2022-10-24T14:17:07.871Z,2.08
2022-10-24T14:19:44.393Z,2.35
2022-10-24T14:22:21.142Z,2.50
2022-10-24T14:24:51.349Z,2.50
2022-10-24T14:27:21.440Z,3.30
2022-10-24T14:29:55.951Z,2.53
2022-10-24T14:32:26.777Z,2.17
2022-10-24T14:34:56.136Z,2.50
2022-10-24T14:37:34.486Z,3.80
2022-10-24T14:40:06.054Z,2.92
2022-10-24T14:42:34.745Z,2.78
2022-10-24T14:45:03.156Z,2.75
2022-10-24T14:47:33.053Z,2.03
2022-10-24T14:50:01.712Z,2.58
2022-10-24T14:52:36.962Z,2.30
2022-10-24T14:55:15.525Z,1.50
2022-10-24T14:57:49.439Z,5.65
2022-10-24T15:00:22.805Z,2.50
2022-10-24T15:02:53.129Z,2.40
2022-10-24T15:05:32.493Z,1.95
2022-10-24T15:08:21.105Z,4.07
2022-10-24T15:11:05.957Z,4.15
2022-10-24T15:13:48.086Z,4.38
2022-10-24T15:16:24.670Z,3.72
2022-10-24T15:18:55.715Z,3.85
2022-10-24T15:21:27.200Z,4.60
2022-10-24T15:23:58.333Z,3.50
2022-10-24T15:26:30.935Z,3.08
2022-10-24T15:29:08.649Z,2.78
2022-10-24T15:31:39.777Z,5.75
2022-10-24T15:34:09.097Z,6.10
2022-10-24T15:36:41.083Z,5.78
2022-10-24T15:39:15.379Z,6.68
2022-10-24T15:41:45.470Z,4.03
2022-10-24T15:44:19.319Z,5.55
2022-10-24T15:46:49.794Z,5.93
2022-10-24T15:49:18.491Z,7.38
2022-10-24T15:51:50.426Z,6.05
2022-10-24T15:54:21.408Z,4.43
2022-10-24T15:56:51.565Z,6.35
2022-10-24T15:59:20.321Z,7.53
2022-10-24T16:01:52.220Z,4.45
2022-10-24T16:04:21.776Z,5.00
2022-10-24T16:06:50.525Z,4.72
2022-10-24T16:09:21.413Z,5.38
2022-10-24T16:11:51.349Z,5.35
2022-10-24T16:14:21.329Z,8.50
2022-10-24T16:16:50.139Z,6.80
2022-10-24T16:19:18.650Z,8.63
2022-10-24T16:21:47.139Z,8.40
2022-10-24T16:24:15.623Z,6.25
2022-10-24T16:26:44.103Z,5.82
2022-10-24T16:29:13.950Z,7.68
2022-10-24T16:31:44.231Z,6.38
2022-10-24T16:34:12.832Z,6.10
2022-10-24T16:36:41.505Z,7.93
2022-10-24T16:39:10.594Z,6.50
2022-10-24T16:44:07.318Z,7.10
2022-10-24T16:46:37.138Z,6.90
2022-10-24T16:51:43.270Z,7.75
2022-10-24T16:54:12.617Z,6.88
2022-10-24T16:56:41.004Z,9.63
2022-10-24T16:59:11.711Z,7.80
2022-10-24T17:01:45.555Z,8.90
2022-10-24T17:04:14.082Z,6.68
2022-10-24T17:06:42.472Z,8.07
2022-10-24T17:09:10.987Z,6.57
2022-10-24T17:11:45.212Z,10.90
2022-10-24T17:14:14.900Z,9.27
2022-10-24T17:19:16.507Z,7.97
2022-10-24T17:21:46.963Z,7.80
2022-10-24T17:24:17.053Z,9.32
2022-10-24T17:26:45.707Z,11.68
2022-10-24T17:29:16.367Z,13.20
2022-10-24T17:31:46.466Z,11.00
2022-10-24T17:34:15.175Z,11.20
2022-10-24T17:36:48.448Z,9.65
2022-10-24T17:41:58.449Z,10.70
2022-10-24T17:44:27.649Z,10.73
2022-10-24T17:46:58.511Z,10.48
2022-10-24T17:49:27.081Z,9.10
2022-10-24T17:51:55.527Z,8.23
2022-10-24T17:54:23.969Z,8.07
2022-10-24T17:56:52.434Z,8.57
2022-10-24T17:59:22.100Z,10.82
2022-10-24T18:01:50.790Z,7.70
2022-10-24T18:04:20.958Z,14.25
2022-10-24T18:06:49.568Z,11.50
2022-10-24T18:09:18.255Z,9.98
2022-10-24T18:14:15.427Z,11.65
2022-10-24T18:16:44.014Z,11.90
2022-10-24T18:19:12.602Z,12.00
2022-10-24T18:21:42.552Z,8.75
2022-10-24T18:24:11.097Z,10.27
2022-10-24T18:26:39.964Z,12.35
2022-10-24T18:29:08.567Z,7.90
2022-10-24T18:31:37.083Z,12.55
2022-10-24T18:34:08.471Z,10.35
2022-10-24T18:36:37.878Z,11.18
2022-10-24T18:41:44.185Z,8.23
2022-10-24T18:44:24.306Z,9.02
2022-10-24T18:46:54.209Z,10.88
2022-10-24T18:49:23.226Z,10.32
2022-10-24T18:54:27.122Z,7.82
2022-10-24T18:56:57.324Z,8.27
2022-10-24T18:59:26.001Z,8.50
2022-10-24T19:02:10.710Z,7.00
2022-10-24T19:04:43.439Z,6.50
2022-10-24T19:07:12.053Z,7.57
2022-10-24T19:09:42.658Z,9.70
2022-10-24T19:12:11.701Z,8.25
2022-10-24T19:17:14.272Z,6.50
2022-10-24T19:19:43.911Z,8.45
2022-10-24T19:22:12.386Z,8.13
2022-10-24T19:24:42.278Z,7.55
2022-10-24T19:27:10.726Z,6.70
2022-10-24T19:29:39.101Z,7.65
2022-10-24T19:32:07.525Z,20.95
2022-10-24T19:34:36.019Z,8.43
2022-10-24T19:37:04.553Z,10.43
2022-10-24T19:39:34.016Z,9.77
2022-10-24T19:42:04.029Z,6.90
2022-10-24T19:44:32.523Z,9.57
2022-10-24T19:47:00.953Z,6.00
2022-10-24T19:49:29.424Z,9.90
2022-10-24T19:51:59.716Z,9.38
2022-10-24T19:54:28.188Z,6.95
2022-10-24T19:56:56.638Z,7.88
2022-10-24T19:59:29.628Z,8.27
2022-10-24T20:04:31.877Z,7.00
2022-10-24T20:07:00.384Z,6.00
2022-10-24T20:09:28.755Z,6.43
2022-10-24T20:11:57.221Z,6.85
2022-10-24T20:14:27.026Z,7.82
2022-10-24T20:16:55.420Z,6.18
2022-10-24T20:19:23.972Z,7.72
2022-10-24T20:21:52.365Z,8.32
2022-10-24T20:24:20.739Z,5.63
2022-10-24T20:26:49.182Z,7.28
2022-10-24T20:29:17.663Z,5.95
2022-10-24T20:31:48.251Z,5.28
2022-10-24T20:34:17.043Z,5.15
2022-10-24T20:36:48.102Z,4.93
2022-10-24T20:39:21.132Z,6.18
2022-10-24T20:41:53.257Z,8.27
2022-10-24T20:44:23.024Z,6.18
2022-10-24T20:46:55.498Z,4.88
2022-10-24T20:49:24.089Z,13.48
2022-10-24T20:51:52.863Z,7.20
2022-10-24T20:54:21.456Z,6.32
2022-10-24T20:56:49.853Z,6.90
2022-10-24T20:59:18.310Z,7.20
2022-10-24T21:01:46.873Z,6.78
2022-10-24T21:04:19.951Z,7.38
2022-10-24T21:06:49.380Z,5.50
2022-10-24T21:09:18.020Z,7.63
2022-10-24T21:11:46.403Z,5.47
2022-10-24T21:14:15.123Z,7.85
2022-10-24T21:16:43.503Z,5.50
2022-10-24T21:19:11.983Z,7.07
2022-10-24T21:21:41.932Z,5.75
2022-10-24T21:24:15.770Z,7.13
2022-10-24T21:26:44.224Z,5.75
2022-10-24T21:29:32.225Z,7.05
2022-10-24T21:32:01.044Z,6.07
2022-10-24T21:34:33.185Z,6.10
2022-10-24T21:37:05.670Z,4.03
2022-10-24T21:39:34.155Z,6.47
2022-10-24T21:42:02.542Z,6.20
2022-10-24T21:44:30.940Z,6.55
2022-10-24T21:46:59.375Z,5.25
2022-10-24T21:49:27.981Z,4.55
2022-10-24T21:51:56.435Z,3.75
2022-10-24T21:54:26.898Z,5.10
2022-10-24T21:56:55.423Z,5.82
2022-10-24T21:59:24.417Z,6.88
2022-10-24T22:01:53.642Z,5.38
2022-10-24T22:04:22.414Z,4.75
2022-10-24T22:06:51.000Z,5.13
2022-10-24T22:09:23.730Z,4.70
2022-10-24T22:11:57.790Z,4.72
2022-10-24T22:14:26.664Z,5.55
2022-10-24T22:16:54.979Z,5.68
2022-10-24T22:19:23.470Z,4.95
2022-10-24T22:21:52.767Z,8.45
2022-10-24T22:24:23.140Z,5.15
2022-10-24T22:26:53.636Z,4.78
2022-10-24T22:29:23.546Z,4.32
2022-10-24T22:31:53.010Z,4.47
2022-10-24T22:34:23.292Z,5.57
2022-10-24T22:37:11.375Z,3.92
2022-10-24T22:39:40.770Z,4.82
2022-10-24T22:42:14.865Z,4.13
2022-10-24T22:44:46.949Z,4.97
2022-10-24T22:47:38.123Z,5.60
2022-10-24T22:50:15.462Z,6.40
2022-10-24T22:52:44.687Z,3.40
2022-10-24T22:55:19.701Z,4.05
2022-10-24T22:57:50.182Z,5.88
2022-10-24T23:00:20.159Z,4.43
2022-10-24T23:02:52.308Z,5.15
2022-10-24T23:05:28.797Z,3.55
2022-10-24T23:08:01.651Z,3.83
2022-10-24T23:10:30.174Z,5.80
2022-10-24T23:13:01.185Z,4.07
2022-10-24T23:15:30.431Z,3.60
2022-10-24T23:17:59.371Z,3.58
2022-10-24T23:23:15.984Z,3.40
2022-10-24T23:25:51.707Z,3.75
2022-10-24T23:28:30.116Z,3.20
2022-10-24T23:30:59.153Z,3.92
2022-10-24T23:33:29.579Z,5.45
2022-10-24T23:36:00.844Z,3.78
2022-10-24T23:38:29.852Z,3.72
2022-10-24T23:43:28.877Z,4.10
2022-10-24T23:46:01.392Z,4.68
2022-10-24T23:48:48.917Z,3.88
2022-10-24T23:51:24.741Z,5.00
2022-10-24T23:53:55.334Z,4.22
2022-10-24T23:56:25.389Z,4.07
2022-10-24T23:58:56.221Z,4.63
